Time,TemperatureF,DewpointF,PressureIn,WindDirection,WindDirectionDegrees,WindSpeedMPH,WindSpeedGustMPH,Humidity,HourlyPrecipIn,Conditions,Clouds,dailyrainin,SoftwareType,DateUTC
2013-09-11 00:00:00,73.8,70.7,30.19,WNW,297,0.0,0.0,90,0.00,,,0.00,meteobridge,2013-09-11 04:00:00,
2013-09-11 00:01:00,73.6,70.5,30.19,WNW,297,0.0,0.0,90,0.00,,,0.00,meteobridge,2013-09-11 04:01:00,
2013-09-11 00:02:00,73.6,70.5,30.19,WNW,297,0.0,0.0,90,0.00,,,0.00,meteobridge,2013-09-11 04:02:00,
2013-09-11 00:03:00,73.6,70.5,30.19,WNW,297,0.0,0.0,90,0.00,,,0.00,meteobridge,2013-09-11 04:03:00,
2013-09-11 00:04:00,73.6,70.5,30.19,WNW,297,0.0,0.0,90,0.00,,,0.00,meteobridge,2013-09-11 04:04:00,
2013-09-11 00:09:00,73.6,70.5,30.19,WNW,298,0.0,0.0,90,0.00,,,0.00,meteobridge,2013-09-11 04:09:00,
2013-09-11 00:14:00,73.2,70.2,30.18,WNW,298,0.0,0.0,90,0.00,,,0.00,meteobridge,2013-09-11 04:14:00,
2013-09-11 00:19:00,73.2,70.2,30.19,WNW,297,0.0,0.0,90,0.00,,,0.00,meteobridge,2013-09-11 04:19:00,
2013-09-11 00:24:00,73.0,70.0,30.18,WNW,297,0.0,0.0,90,0.00,,,0.00,meteobridge,2013-09-11 04:24:00,
2013-09-11 00:29:00,73.0,70.0,30.18,WNW,297,0.0,0.0,90,0.00,,,0.00,meteobridge,2013-09-11 04:29:00,
2013-09-11 00:35:00,73.0,70.0,30.18,WNW,296,0.0,0.0,90,0.00,,,0.00,meteobridge,2013-09-11 04:35:00,
2013-09-11 00:40:00,72.9,69.8,30.18,WNW,296,0.0,0.0,90,0.00,,,0.00,meteobridge,2013-09-11 04:40:00,
2013-09-11 00:45:00,72.9,69.8,30.18,WNW,297,0.0,0.0,90,0.00,,,0.00,meteobridge,2013-09-11 04:45:00,
2013-09-11 00:50:00,72.9,69.4,30.18,WNW,296,0.0,0.0,89,0.00,,,0.00,meteobridge,2013-09-11 04:50:00,
2013-09-11 00:55:00,72.9,69.4,30.18,WNW,296,0.0,0.0,89,0.00,,,0.00,meteobridge,2013-09-11 04:55:00,
2013-09-11 01:00:00,72.7,69.3,30.18,WNW,296,0.0,0.0,89,0.00,,,0.00,meteobridge,2013-09-11 05:00:00,
2013-09-11 01:05:00,72.7,69.3,30.18,WNW,297,0.0,0.0,89,0.00,,,0.00,meteobridge,2013-09-11 05:05:00,
2013-09-11 01:11:00,72.7,69.3,30.18,WNW,297,0.0,0.0,89,0.00,,,0.00,meteobridge,2013-09-11 05:11:00,
2013-09-11 01:16:00,72.5,69.1,30.18,WNW,297,0.0,0.0,89,0.00,,,0.00,meteobridge,2013-09-11 05:16:00,
2013-09-11 01:21:00,72.5,69.1,30.18,WNW,297,0.0,0.0,89,0.00,,,0.00,meteobridge,2013-09-11 05:21:00,
2013-09-11 01:26:00,72.3,69.3,30.18,WNW,296,0.0,0.0,90,0.00,,,0.00,meteobridge,2013-09-11 05:26:00,
2013-09-11 01:31:00,72.3,69.3,30.18,WNW,296,0.0,0.0,90,0.00,,,0.00,meteobridge,2013-09-11 05:31:00,
2013-09-11 01:36:00,72.3,69.3,30.18,WNW,296,0.0,0.0,90,0.00,,,0.00,meteobridge,2013-09-11 05:36:00,
2013-09-11 01:41:00,72.3,69.3,30.18,WNW,296,0.0,0.0,90,0.00,,,0.00,meteobridge,2013-09-11 05:41:00,
2013-09-11 01:46:00,72.1,69.1,30.18,WNW,296,0.0,0.0,90,0.00,,,0.00,meteobridge,2013-09-11 05:46:00,
2013-09-11 01:51:00,72.0,68.9,30.18,WNW,297,0.0,0.0,90,0.00,,,0.00,meteobridge,2013-09-11 05:51:00,
2013-09-11 01:56:00,72.0,68.9,30.18,WNW,297,0.0,0.0,90,0.00,,,0.00,meteobridge,2013-09-11 05:56:00,
2013-09-11 02:01:00,71.8,68.7,30.18,WNW,296,0.0,0.0,90,0.00,,,0.00,meteobridge,2013-09-11 06:01:00,
2013-09-11 02:06:00,71.6,68.5,30.17,WNW,297,0.0,0.0,90,0.00,,,0.00,meteobridge,2013-09-11 06:06:00,
2013-09-11 02:11:00,71.4,68.7,30.17,WNW,296,0.0,0.0,91,0.00,,,0.00,meteobridge,2013-09-11 06:11:00,
2013-09-11 02:17:00,71.4,68.7,30.17,WNW,297,0.0,0.0,91,0.00,,,0.00,meteobridge,2013-09-11 06:17:00,
2013-09-11 02:22:00,71.2,68.2,30.17,WNW,297,0.0,0.0,90,0.00,,,0.00,meteobridge,2013-09-11 06:22:00,
2013-09-11 02:27:00,71.2,68.2,30.17,WNW,297,0.0,0.0,90,0.00,,,0.00,meteobridge,2013-09-11 06:27:00,
2013-09-11 02:32:00,71.2,68.2,30.17,WNW,297,0.0,0.0,90,0.00,,,0.00,meteobridge,2013-09-11 06:32:00,
2013-09-11 02:37:00,71.1,68.4,30.17,WNW,297,0.0,0.0,91,0.00,,,0.00,meteobridge,2013-09-11 06:37:00,
2013-09-11 02:42:00,71.1,68.4,30.17,WNW,297,0.0,0.0,91,0.00,,,0.00,meteobridge,2013-09-11 06:42:00,
2013-09-11 02:47:00,70.9,68.2,30.17,WNW,297,0.0,0.0,91,0.00,,,0.00,meteobridge,2013-09-11 06:47:00,
2013-09-11 02:52:00,70.9,68.2,30.17,WNW,296,0.0,0.0,91,0.00,,,0.00,meteobridge,2013-09-11 06:52:00,
2013-09-11 02:57:00,70.7,68.0,30.17,WNW,297,0.0,0.0,91,0.00,,,0.00,meteobridge,2013-09-11 06:57:00,
2013-09-11 03:02:00,70.7,68.0,30.17,WNW,297,0.0,0.0,91,0.00,,,0.00,meteobridge,2013-09-11 07:02:00,
2013-09-11 03:07:00,70.5,68.0,30.16,WNW,297,0.0,0.0,92,0.00,,,0.00,meteobridge,2013-09-11 07:07:00,
2013-09-11 03:12:00,70.5,68.0,30.16,WNW,296,0.0,0.0,92,0.00,,,0.00,meteobridge,2013-09-11 07:12:00,
2013-09-11 03:17:00,70.3,67.8,30.16,WNW,296,0.0,0.0,92,0.00,,,0.00,meteobridge,2013-09-11 07:17:00,
2013-09-11 03:22:00,70.3,67.8,30.16,WNW,296,0.0,0.0,92,0.00,,,0.00,meteobridge,2013-09-11 07:22:00,
2013-09-11 03:27:00,70.2,67.6,30.16,WNW,296,0.0,0.0,92,0.00,,,0.00,meteobridge,2013-09-11 07:27:00,
2013-09-11 03:32:00,70.2,67.6,30.16,WNW,297,0.0,0.0,92,0.00,,,0.00,meteobridge,2013-09-11 07:32:00,
2013-09-11 03:37:00,70.2,67.6,30.16,WNW,296,0.0,0.0,92,0.00,,,0.00,meteobridge,2013-09-11 07:37:00,
2013-09-11 03:42:00,70.0,67.5,30.16,WNW,296,0.0,0.0,92,0.00,,,0.00,meteobridge,2013-09-11 07:42:00,
2013-09-11 03:48:00,70.0,67.5,30.16,WNW,297,0.0,0.0,92,0.00,,,0.00,meteobridge,2013-09-11 07:48:00,
2013-09-11 03:53:00,69.8,67.6,30.16,WNW,296,0.0,0.0,93,0.00,,,0.00,meteobridge,2013-09-11 07:53:00,
2013-09-11 03:58:00,69.6,67.5,30.16,WNW,296,0.0,0.0,93,0.00,,,0.00,meteobridge,2013-09-11 07:58:00,
2013-09-11 04:03:00,69.6,67.5,30.16,WNW,297,0.0,0.0,93,0.00,,,0.00,meteobridge,2013-09-11 08:03:00,
2013-09-11 04:08:00,69.4,67.3,30.16,WNW,296,0.0,0.0,93,0.00,,,0.00,meteobridge,2013-09-11 08:08:00,
2013-09-11 04:13:00,69.4,67.3,30.16,WNW,297,0.0,0.0,93,0.00,,,0.00,meteobridge,2013-09-11 08:13:00,
2013-09-11 04:18:00,69.4,67.3,30.16,WNW,296,0.0,0.0,93,0.00,,,0.00,meteobridge,2013-09-11 08:18:00,
2013-09-11 04:23:00,69.3,67.5,30.16,WNW,297,0.0,0.0,94,0.00,,,0.00,meteobridge,2013-09-11 08:23:00,
2013-09-11 04:28:00,69.3,67.5,30.16,WNW,297,0.0,0.0,94,0.00,,,0.00,meteobridge,2013-09-11 08:28:00,
2013-09-11 04:33:00,69.1,67.3,30.16,WNW,297,0.0,0.0,94,0.00,,,0.00,meteobridge,2013-09-11 08:33:00,
2013-09-11 04:39:00,69.1,67.3,30.16,WNW,297,0.0,0.0,94,0.00,,,0.00,meteobridge,2013-09-11 08:39:00,
2013-09-11 04:44:00,69.1,67.3,30.16,WNW,296,0.0,0.0,94,0.00,,,0.00,meteobridge,2013-09-11 08:44:00,
2013-09-11 04:49:00,68.9,67.1,30.16,WNW,297,0.0,0.0,94,0.00,,,0.00,meteobridge,2013-09-11 08:49:00,
2013-09-11 04:54:00,68.9,67.1,30.16,WNW,296,0.0,0.0,94,0.00,,,0.00,meteobridge,2013-09-11 08:54:00,
2013-09-11 04:59:00,68.7,66.9,30.16,WNW,296,0.0,0.0,94,0.00,,,0.00,meteobridge,2013-09-11 08:59:00,
2013-09-11 05:04:00,68.7,66.9,30.16,WNW,297,0.0,0.0,94,0.00,,,0.00,meteobridge,2013-09-11 09:04:00,
2013-09-11 05:09:00,68.5,66.7,30.16,WNW,297,0.0,0.0,94,0.00,,,0.00,meteobridge,2013-09-11 09:09:00,
2013-09-11 05:14:00,68.5,66.7,30.16,WNW,297,0.0,0.0,94,0.00,,,0.00,meteobridge,2013-09-11 09:14:00,
2013-09-11 05:19:00,68.5,67.1,30.17,WNW,296,0.0,0.0,95,0.00,,,0.00,meteobridge,2013-09-11 09:19:00,
2013-09-11 05:24:00,68.5,67.1,30.17,WNW,297,0.0,0.0,95,0.00,,,0.00,meteobridge,2013-09-11 09:24:00,
2013-09-11 05:29:00,68.4,66.9,30.17,WNW,297,0.0,0.0,95,0.00,,,0.00,meteobridge,2013-09-11 09:29:00,
2013-09-11 05:35:00,68.4,66.9,30.17,WNW,296,0.0,0.0,95,0.00,,,0.00,meteobridge,2013-09-11 09:35:00,
2013-09-11 05:40:00,68.4,66.9,30.17,WNW,296,0.0,0.0,95,0.00,,,0.00,meteobridge,2013-09-11 09:40:00,
2013-09-11 05:45:00,68.4,66.9,30.17,WNW,297,0.0,0.0,95,0.00,,,0.00,meteobridge,2013-09-11 09:45:00,
2013-09-11 05:50:00,68.2,66.7,30.17,WNW,296,0.0,0.0,95,0.00,,,0.00,meteobridge,2013-09-11 09:50:00,
2013-09-11 05:55:00,68.2,66.7,30.17,WNW,296,0.0,0.0,95,0.00,,,0.00,meteobridge,2013-09-11 09:55:00,
2013-09-11 06:00:00,68.2,66.7,30.17,WNW,297,0.0,0.0,95,0.00,,,0.00,meteobridge,2013-09-11 10:00:00,
2013-09-11 06:05:00,68.2,66.7,30.17,WNW,296,0.0,0.0,95,0.00,,,0.00,meteobridge,2013-09-11 10:05:00,
2013-09-11 06:10:00,68.2,66.7,30.17,WNW,297,0.0,0.0,95,0.00,,,0.00,meteobridge,2013-09-11 10:10:00,
2013-09-11 06:15:00,68.0,66.6,30.17,WNW,297,0.0,0.0,95,0.00,,,0.00,meteobridge,2013-09-11 10:15:00,
2013-09-11 06:20:00,68.0,66.6,30.17,WNW,296,0.0,0.0,95,0.00,,,0.00,meteobridge,2013-09-11 10:20:00,
2013-09-11 06:25:00,67.8,66.4,30.17,WNW,296,0.0,0.0,95,0.00,,,0.00,meteobridge,2013-09-11 10:25:00,
2013-09-11 06:30:00,67.8,66.4,30.17,WNW,297,0.0,0.0,95,0.00,,,0.00,meteobridge,2013-09-11 10:30:00,
2013-09-11 06:35:00,67.8,66.4,30.17,WNW,296,0.0,0.0,95,0.00,,,0.00,meteobridge,2013-09-11 10:35:00,
2013-09-11 06:40:00,67.6,66.2,30.17,WNW,297,0.0,0.0,95,0.00,,,0.00,meteobridge,2013-09-11 10:40:00,
2013-09-11 06:45:00,67.6,66.2,30.17,WNW,297,0.0,0.0,95,0.00,,,0.00,meteobridge,2013-09-11 10:45:00,
2013-09-11 06:50:00,67.5,66.0,30.17,WNW,297,0.0,0.0,95,0.00,,,0.00,meteobridge,2013-09-11 10:50:00,
2013-09-11 06:55:00,67.5,66.2,30.18,WNW,296,0.0,0.0,96,0.00,,,0.00,meteobridge,2013-09-11 10:55:00,
2013-09-11 07:00:00,67.5,66.2,30.18,WNW,296,0.0,0.0,96,0.00,,,0.00,meteobridge,2013-09-11 11:00:00,
2013-09-11 07:06:00,67.5,66.2,30.18,WNW,296,0.0,0.0,96,0.00,,,0.00,meteobridge,2013-09-11 11:06:00,
2013-09-11 07:10:00,67.5,66.2,30.18,WNW,297,0.0,0.0,96,0.00,,,0.00,meteobridge,2013-09-11 11:10:00,
2013-09-11 07:16:00,67.5,66.2,30.18,WNW,297,0.0,0.0,96,0.00,,,0.00,meteobridge,2013-09-11 11:16:00,
2013-09-11 07:21:00,67.5,66.2,30.18,WNW,296,0.0,0.0,96,0.00,,,0.00,meteobridge,2013-09-11 11:21:00,
2013-09-11 07:26:00,67.6,66.4,30.19,WNW,296,0.0,0.0,96,0.00,,,0.00,meteobridge,2013-09-11 11:26:00,
2013-09-11 07:31:00,67.6,66.4,30.19,WNW,297,0.0,0.0,96,0.00,,,0.00,meteobridge,2013-09-11 11:31:00,
2013-09-11 07:36:00,67.6,66.4,30.18,WNW,296,0.0,0.0,96,0.00,,,0.00,meteobridge,2013-09-11 11:36:00,
2013-09-11 07:41:00,67.6,66.4,30.18,WNW,296,0.0,0.0,96,0.00,,,0.00,meteobridge,2013-09-11 11:41:00,
2013-09-11 07:46:00,67.6,66.4,30.19,WNW,297,0.0,0.0,96,0.00,,,0.00,meteobridge,2013-09-11 11:46:00,
2013-09-11 07:51:00,67.8,66.6,30.19,WNW,297,0.0,0.0,96,0.00,,,0.00,meteobridge,2013-09-11 11:51:00,
2013-09-11 07:56:00,68.0,66.7,30.19,WNW,296,0.0,0.0,96,0.00,,,0.00,meteobridge,2013-09-11 11:56:00,
2013-09-11 08:01:00,68.2,66.9,30.19,WNW,296,0.0,0.0,96,0.00,,,0.00,meteobridge,2013-09-11 12:01:00,
2013-09-11 08:06:00,68.5,67.3,30.19,WNW,297,0.0,0.0,96,0.00,,,0.00,meteobridge,2013-09-11 12:06:00,
2013-09-11 08:11:00,68.9,67.6,30.19,WNW,297,0.0,0.0,96,0.00,,,0.00,meteobridge,2013-09-11 12:11:00,
2013-09-11 08:16:00,69.3,67.8,30.19,WNW,296,0.0,0.0,95,0.00,,,0.00,meteobridge,2013-09-11 12:16:00,
2013-09-11 08:22:00,69.6,68.2,30.19,WNW,296,0.0,0.0,95,0.00,,,0.00,meteobridge,2013-09-11 12:22:00,
2013-09-11 08:27:00,70.0,68.2,30.19,WNW,297,0.0,0.0,94,0.00,,,0.00,meteobridge,2013-09-11 12:27:00,
2013-09-11 08:32:00,70.3,68.5,30.19,WNW,297,0.0,0.0,94,0.00,,,0.00,meteobridge,2013-09-11 12:32:00,
2013-09-11 08:37:00,70.9,68.7,30.19,WNW,300,0.0,0.0,93,0.00,,,0.00,meteobridge,2013-09-11 12:37:00,
2013-09-11 08:42:00,72.0,69.3,30.19,WNW,300,0.0,0.0,91,0.00,,,0.00,meteobridge,2013-09-11 12:42:00,
2013-09-11 08:47:00,72.7,69.6,30.19,WNW,299,0.0,0.0,90,0.00,,,0.00,meteobridge,2013-09-11 12:47:00,
2013-09-11 08:52:00,72.9,69.8,30.19,WNW,300,0.0,0.0,90,0.00,,,0.00,meteobridge,2013-09-11 12:52:00,
2013-09-11 08:58:00,73.0,70.0,30.19,WNW,300,0.0,0.0,90,0.00,,,0.00,meteobridge,2013-09-11 12:58:00,
2013-09-11 09:03:00,73.4,70.0,30.19,WNW,300,0.0,0.0,89,0.00,,,0.00,meteobridge,2013-09-11 13:03:00,
2013-09-11 09:08:00,73.9,70.2,30.19,North,8,0.0,0.0,88,0.00,,,0.00,meteobridge,2013-09-11 13:08:00,
2013-09-11 09:13:00,74.7,70.2,30.19,NNE,13,0.0,0.0,86,0.00,,,0.00,meteobridge,2013-09-11 13:13:00,
2013-09-11 09:18:00,75.4,70.9,30.19,NNE,14,0.0,0.0,86,0.00,,,0.00,meteobridge,2013-09-11 13:18:00,
2013-09-11 09:23:00,75.9,71.1,30.19,NNE,14,0.0,0.0,85,0.00,,,0.00,meteobridge,2013-09-11 13:23:00,
2013-09-11 09:28:00,76.5,70.2,30.19,NNE,18,0.0,0.0,81,0.00,,,0.00,meteobridge,2013-09-11 13:28:00,
2013-09-11 09:33:00,77.2,70.9,30.19,NNE,18,0.0,0.0,81,0.00,,,0.00,meteobridge,2013-09-11 13:33:00,
2013-09-11 09:38:00,77.5,70.9,30.19,NNE,19,0.0,0.0,80,0.00,,,0.00,meteobridge,2013-09-11 13:38:00,
2013-09-11 09:43:00,78.1,70.0,30.19,NNE,25,0.0,0.0,76,0.00,,,0.00,meteobridge,2013-09-11 13:43:00,
2013-09-11 09:49:00,79.0,70.7,30.19,ENE,58,0.0,0.0,76,0.00,,,0.00,meteobridge,2013-09-11 13:49:00,
2013-09-11 09:54:00,79.5,70.5,30.19,ENE,60,0.0,0.0,74,0.00,,,0.00,meteobridge,2013-09-11 13:54:00,
2013-09-11 09:59:00,79.9,71.2,30.19,ENE,59,0.0,0.0,75,0.00,,,0.00,meteobridge,2013-09-11 13:59:00,
2013-09-11 10:04:00,80.2,70.3,30.18,ENE,60,0.0,0.0,72,0.00,,,0.00,meteobridge,2013-09-11 14:04:00,
2013-09-11 10:09:00,80.8,70.5,30.18,NE,56,0.0,0.0,71,0.00,,,0.00,meteobridge,2013-09-11 14:09:00,
2013-09-11 10:14:00,81.3,71.1,30.18,East,79,0.0,0.0,71,0.00,,,0.00,meteobridge,2013-09-11 14:14:00,
2013-09-11 10:19:00,81.5,71.2,30.18,North,7,0.0,0.0,71,0.00,,,0.00,meteobridge,2013-09-11 14:19:00,
2013-09-11 10:24:00,81.7,71.4,30.18,ENE,68,0.0,0.0,71,0.00,,,0.00,meteobridge,2013-09-11 14:24:00,
2013-09-11 10:30:00,82.0,71.8,30.18,ENE,68,0.0,0.0,71,0.00,,,0.00,meteobridge,2013-09-11 14:30:00,
2013-09-11 10:35:00,82.6,70.5,30.18,NNE,26,0.0,0.0,67,0.00,,,0.00,meteobridge,2013-09-11 14:35:00,
2013-09-11 10:40:00,83.1,71.1,30.18,NE,37,0.0,0.0,67,0.00,,,0.00,meteobridge,2013-09-11 14:40:00,
2013-09-11 10:45:00,83.7,71.1,30.18,NE,53,0.0,0.0,66,0.00,,,0.00,meteobridge,2013-09-11 14:45:00,
2013-09-11 10:50:00,84.0,72.0,30.18,NE,56,0.0,0.0,67,0.00,,,0.00,meteobridge,2013-09-11 14:50:00,
2013-09-11 10:55:00,84.4,71.2,30.18,NE,49,0.0,0.0,65,0.00,,,0.00,meteobridge,2013-09-11 14:55:00,
2013-09-11 11:00:00,84.6,72.0,30.18,ENE,60,0.0,2.0,66,0.00,,,0.00,meteobridge,2013-09-11 15:00:00,
2013-09-11 11:06:00,84.4,70.9,30.18,ENE,58,0.0,2.0,64,0.00,,,0.00,meteobridge,2013-09-11 15:06:00,
2013-09-11 11:10:00,84.0,72.3,30.18,ENE,70,0.0,0.0,68,0.00,,,0.00,meteobridge,2013-09-11 15:10:00,
2013-09-11 11:16:00,84.0,72.0,30.17,ENE,65,0.0,0.9,67,0.00,,,0.00,meteobridge,2013-09-11 15:16:00,
2013-09-11 11:21:00,83.8,72.5,30.17,ENE,65,0.0,0.9,69,0.00,,,0.00,meteobridge,2013-09-11 15:21:00,
2013-09-11 11:26:00,83.5,72.3,30.17,North,6,0.0,0.9,69,0.00,,,0.00,meteobridge,2013-09-11 15:26:00,
2013-09-11 11:31:00,83.5,72.3,30.17,NNE,19,0.0,0.9,69,0.00,,,0.00,meteobridge,2013-09-11 15:31:00,
2013-09-11 11:36:00,83.5,73.0,30.17,NNE,19,0.0,0.0,71,0.00,,,0.00,meteobridge,2013-09-11 15:36:00,
2013-09-11 11:41:00,84.0,71.4,30.17,North,11,0.0,2.0,66,0.00,,,0.00,meteobridge,2013-09-11 15:41:00,
2013-09-11 11:46:00,84.7,72.5,30.17,NE,46,0.0,0.9,67,0.00,,,0.00,meteobridge,2013-09-11 15:46:00,
2013-09-11 11:51:00,84.9,71.4,30.16,ENE,58,0.0,0.0,64,0.00,,,0.00,meteobridge,2013-09-11 15:51:00,
2013-09-11 11:56:00,84.7,72.5,30.16,NE,44,0.0,0.0,67,0.00,,,0.00,meteobridge,2013-09-11 15:56:00,
2013-09-11 12:01:00,84.7,73.0,30.16,NE,34,0.0,0.0,68,0.00,,,0.00,meteobridge,2013-09-11 16:01:00,
2013-09-11 12:06:00,84.9,73.2,30.16,NE,34,0.0,0.0,68,0.00,,,0.00,meteobridge,2013-09-11 16:06:00,
2013-09-11 12:12:00,85.5,72.9,30.16,NNE,30,0.0,0.0,66,0.00,,,0.00,meteobridge,2013-09-11 16:12:00,
2013-09-11 12:17:00,86.4,72.7,30.15,WSW,256,0.9,0.9,64,0.00,,,0.00,meteobridge,2013-09-11 16:17:00,
2013-09-11 12:22:00,86.7,73.0,30.15,ENE,73,0.9,2.0,64,0.00,,,0.00,meteobridge,2013-09-11 16:22:00,
2013-09-11 12:27:00,87.4,72.9,30.15,ENE,62,0.0,2.0,62,0.00,,,0.00,meteobridge,2013-09-11 16:27:00,
2013-09-11 12:32:00,87.8,72.1,30.15,NNE,14,0.0,0.9,60,0.00,,,0.00,meteobridge,2013-09-11 16:32:00,
2013-09-11 12:37:00,88.2,72.5,30.15,ENE,63,0.9,2.9,60,0.00,,,0.00,meteobridge,2013-09-11 16:37:00,
2013-09-11 12:42:00,88.3,73.6,30.15,NNE,27,0.0,2.0,62,0.00,,,0.00,meteobridge,2013-09-11 16:42:00,
2013-09-11 12:47:00,88.3,72.7,30.15,WNW,287,0.9,0.9,60,0.00,,,0.00,meteobridge,2013-09-11 16:47:00,
2013-09-11 12:52:00,88.7,72.0,30.14,WNW,290,0.0,0.9,58,0.00,,,0.00,meteobridge,2013-09-11 16:52:00,
2013-09-11 12:57:00,88.9,72.7,30.14,East,80,0.0,0.9,59,0.00,,,0.00,meteobridge,2013-09-11 16:57:00,
2013-09-11 13:02:00,89.2,72.0,30.14,NW,308,0.9,2.0,57,0.00,,,0.00,meteobridge,2013-09-11 17:02:00,
2013-09-11 13:07:00,89.4,73.2,30.14,WNW,303,0.0,0.9,59,0.00,,,0.00,meteobridge,2013-09-11 17:07:00,
2013-09-11 13:12:00,89.2,73.0,30.14,NW,316,0.0,0.0,59,0.00,,,0.00,meteobridge,2013-09-11 17:12:00,
2013-09-11 13:17:00,89.4,72.7,30.14,NE,35,0.9,0.9,58,0.00,,,0.00,meteobridge,2013-09-11 17:17:00,
2013-09-11 13:23:00,90.0,73.2,30.13,West,267,0.0,0.0,58,0.00,,,0.00,meteobridge,2013-09-11 17:23:00,
2013-09-11 13:28:00,89.6,73.4,30.13,North,354,0.0,0.9,59,0.00,,,0.00,meteobridge,2013-09-11 17:28:00,
2013-09-11 13:33:00,88.9,72.7,30.13,ENE,65,2.0,2.9,59,0.00,,,0.00,meteobridge,2013-09-11 17:33:00,
2013-09-11 13:38:00,88.7,72.5,30.12,West,278,0.0,0.9,59,0.00,,,0.00,meteobridge,2013-09-11 17:38:00,
2013-09-11 13:43:00,89.2,74.5,30.12,ENE,65,0.0,0.0,62,0.00,,,0.00,meteobridge,2013-09-11 17:43:00,
2013-09-11 13:48:00,89.8,73.0,30.12,ENE,60,0.0,2.0,58,0.00,,,0.00,meteobridge,2013-09-11 17:48:00,
2013-09-11 13:53:00,89.8,72.5,30.11,NE,48,0.0,0.0,57,0.00,,,0.00,meteobridge,2013-09-11 17:53:00,
2013-09-11 13:58:00,89.1,71.8,30.11,NE,53,0.0,0.0,57,0.00,,,0.00,meteobridge,2013-09-11 17:58:00,
2013-09-11 14:03:00,88.3,73.2,30.11,NE,53,0.0,0.0,61,0.00,,,0.00,meteobridge,2013-09-11 18:03:00,
2013-09-11 14:08:00,87.8,73.2,30.11,NE,53,0.0,0.9,62,0.00,,,0.00,meteobridge,2013-09-11 18:08:00,
2013-09-11 14:14:00,88.0,71.8,30.11,WNW,300,0.0,2.0,59,0.00,,,0.00,meteobridge,2013-09-11 18:14:00,
2013-09-11 14:19:00,88.7,72.0,30.11,ENE,63,0.9,2.9,58,0.00,,,0.00,meteobridge,2013-09-11 18:19:00,
2013-09-11 14:24:00,88.9,71.6,30.10,NW,322,0.0,0.0,57,0.00,,,0.00,meteobridge,2013-09-11 18:24:00,
2013-09-11 14:29:00,88.9,72.1,30.10,NNW,345,0.0,0.0,58,0.00,,,0.00,meteobridge,2013-09-11 18:29:00,
2013-09-11 14:34:00,88.2,72.5,30.10,ENE,64,0.9,0.9,60,0.00,,,0.00,meteobridge,2013-09-11 18:34:00,
2013-09-11 14:39:00,88.7,72.0,30.09,West,278,0.9,0.9,58,0.00,,,0.00,meteobridge,2013-09-11 18:39:00,
2013-09-11 14:44:00,89.8,71.4,30.09,NE,48,0.0,0.0,55,0.00,,,0.00,meteobridge,2013-09-11 18:44:00,
2013-09-11 14:49:00,90.3,71.4,30.09,ENE,58,0.0,2.0,54,0.00,,,0.00,meteobridge,2013-09-11 18:49:00,
2013-09-11 14:54:00,90.9,72.0,30.09,ENE,64,2.0,2.0,54,0.00,,,0.00,meteobridge,2013-09-11 18:54:00,
2013-09-11 14:59:00,90.7,69.4,30.09,ENE,58,2.0,2.9,50,0.00,,,0.00,meteobridge,2013-09-11 18:59:00,
2013-09-11 15:04:00,90.3,70.9,30.09,ENE,65,0.9,2.0,53,0.00,,,0.00,meteobridge,2013-09-11 19:04:00,
2013-09-11 15:09:00,90.0,70.5,30.09,WNW,290,0.9,0.9,53,0.00,,,0.00,meteobridge,2013-09-11 19:09:00,
2013-09-11 15:14:00,89.8,71.4,30.09,NW,315,0.0,0.0,55,0.00,,,0.00,meteobridge,2013-09-11 19:14:00,
2013-09-11 15:19:00,90.1,70.7,30.09,East,79,0.0,2.9,53,0.00,,,0.00,meteobridge,2013-09-11 19:19:00,
2013-09-11 15:24:00,90.7,70.0,30.09,NW,308,0.9,0.9,51,0.00,,,0.00,meteobridge,2013-09-11 19:24:00,
2013-09-11 15:30:00,90.1,70.7,30.08,WNW,290,0.0,0.9,53,0.00,,,0.00,meteobridge,2013-09-11 19:30:00,
2013-09-11 15:35:00,89.4,70.5,30.08,NW,304,0.9,2.0,54,0.00,,,0.00,meteobridge,2013-09-11 19:35:00,
2013-09-11 15:40:00,89.4,71.6,30.08,ENE,77,2.0,2.0,56,0.00,,,0.00,meteobridge,2013-09-11 19:40:00,
2013-09-11 15:45:00,89.2,70.3,30.08,North,359,2.0,4.0,54,0.00,,,0.00,meteobridge,2013-09-11 19:45:00,
2013-09-11 15:50:00,88.9,70.7,30.08,NW,307,0.9,4.0,55,0.00,,,0.00,meteobridge,2013-09-11 19:50:00,
2013-09-11 15:55:00,88.2,70.0,30.08,NW,325,0.9,2.9,55,0.00,,,0.00,meteobridge,2013-09-11 19:55:00,
2013-09-11 16:00:00,87.6,69.4,30.08,NNW,342,0.0,2.9,55,0.00,,,0.00,meteobridge,2013-09-11 20:00:00,
2013-09-11 16:05:00,87.4,69.8,30.08,ENE,64,0.0,0.9,56,0.00,,,0.00,meteobridge,2013-09-11 20:05:00,
2013-09-11 16:10:00,87.3,70.2,30.08,WNW,300,0.0,0.9,57,0.00,,,0.00,meteobridge,2013-09-11 20:10:00,
2013-09-11 16:15:00,87.4,70.9,30.08,North,8,0.0,2.0,58,0.00,,,0.00,meteobridge,2013-09-11 20:15:00,
2013-09-11 16:20:00,88.0,70.9,30.08,WNW,302,2.0,2.0,57,0.00,,,0.00,meteobridge,2013-09-11 20:20:00,
2013-09-11 16:25:00,88.2,71.1,30.08,West,273,2.0,2.9,57,0.00,,,0.00,meteobridge,2013-09-11 20:25:00,
2013-09-11 16:30:00,88.2,69.4,30.08,NW,304,0.9,4.0,54,0.00,,,0.00,meteobridge,2013-09-11 20:30:00,
2013-09-11 16:35:00,88.3,70.2,30.08,NE,47,0.0,2.0,55,0.00,,,0.00,meteobridge,2013-09-11 20:35:00,
2013-09-11 16:40:00,88.3,69.6,30.08,WNW,286,2.0,4.0,54,0.00,,,0.00,meteobridge,2013-09-11 20:40:00,
2013-09-11 16:45:00,88.2,69.4,30.08,WNW,285,0.0,2.9,54,0.00,,,0.00,meteobridge,2013-09-11 20:45:00,
2013-09-11 16:50:00,88.3,70.2,30.08,WNW,286,2.0,2.0,55,0.00,,,0.00,meteobridge,2013-09-11 20:50:00,
2013-09-11 16:55:00,88.3,71.2,30.07,ENE,65,2.9,2.9,57,0.00,,,0.00,meteobridge,2013-09-11 20:55:00,
2013-09-11 17:00:00,88.0,71.4,30.07,ENE,76,0.0,2.0,58,0.00,,,0.00,meteobridge,2013-09-11 21:00:00,
2013-09-11 17:05:00,87.4,71.4,30.07,NE,56,0.0,2.9,59,0.00,,,0.00,meteobridge,2013-09-11 21:05:00,
2013-09-11 17:10:00,87.1,71.4,30.07,East,81,0.0,2.0,60,0.00,,,0.00,meteobridge,2013-09-11 21:10:00,
2013-09-11 17:15:00,86.9,72.3,30.07,ENE,59,0.9,2.0,62,0.00,,,0.00,meteobridge,2013-09-11 21:15:00,
2013-09-11 17:20:00,86.7,71.6,30.07,ENE,60,2.9,2.9,61,0.00,,,0.00,meteobridge,2013-09-11 21:20:00,
2013-09-11 17:26:00,86.4,72.3,30.07,ENE,77,0.0,0.9,63,0.00,,,0.00,meteobridge,2013-09-11 21:26:00,
2013-09-11 17:31:00,86.4,72.3,30.07,WNW,288,2.0,2.9,63,0.00,,,0.00,meteobridge,2013-09-11 21:31:00,
2013-09-11 17:36:00,86.4,72.7,30.07,ENE,63,0.0,0.9,64,0.00,,,0.00,meteobridge,2013-09-11 21:36:00,
2013-09-11 17:41:00,86.2,71.6,30.07,WNW,293,0.0,0.9,62,0.00,,,0.00,meteobridge,2013-09-11 21:41:00,
2013-09-11 17:46:00,86.2,72.1,30.07,ENE,63,2.0,2.0,63,0.00,,,0.00,meteobridge,2013-09-11 21:46:00,
2013-09-11 17:51:00,86.2,72.1,30.07,ENE,58,0.0,0.0,63,0.00,,,0.00,meteobridge,2013-09-11 21:51:00,
2013-09-11 17:56:00,86.0,72.0,30.07,ENE,69,0.9,2.0,63,0.00,,,0.00,meteobridge,2013-09-11 21:56:00,
2013-09-11 18:01:00,85.8,71.8,30.07,West,263,0.9,0.9,63,0.00,,,0.00,meteobridge,2013-09-11 22:01:00,
2013-09-11 18:06:00,85.8,71.8,30.07,ENE,66,0.0,2.0,63,0.00,,,0.00,meteobridge,2013-09-11 22:06:00,
2013-09-11 18:11:00,85.6,71.6,30.06,NE,50,0.0,0.9,63,0.00,,,0.00,meteobridge,2013-09-11 22:11:00,
2013-09-11 18:16:00,85.6,71.6,30.06,WNW,284,0.9,2.0,63,0.00,,,0.00,meteobridge,2013-09-11 22:16:00,
2013-09-11 18:21:00,85.5,71.4,30.06,NE,39,0.9,0.9,63,0.00,,,0.00,meteobridge,2013-09-11 22:21:00,
2013-09-11 18:27:00,85.5,71.4,30.06,NE,39,0.0,0.0,63,0.00,,,0.00,meteobridge,2013-09-11 22:27:00,
2013-09-11 18:32:00,85.3,71.2,30.06,WNW,283,0.9,0.9,63,0.00,,,0.00,meteobridge,2013-09-11 22:32:00,
2013-09-11 18:37:00,85.3,71.8,30.06,West,281,0.0,0.0,64,0.00,,,0.00,meteobridge,2013-09-11 22:37:00,
2013-09-11 18:43:00,84.9,71.8,30.06,NE,48,0.0,0.9,65,0.00,,,0.00,meteobridge,2013-09-11 22:43:00,
2013-09-11 18:48:00,84.7,71.2,30.06,NE,48,0.0,0.0,64,0.00,,,0.00,meteobridge,2013-09-11 22:48:00,
2013-09-11 18:53:00,84.6,72.3,30.06,NW,309,0.0,0.0,67,0.00,,,0.00,meteobridge,2013-09-11 22:53:00,
2013-09-11 18:58:00,83.8,71.8,30.06,NW,309,0.0,0.0,67,0.00,,,0.00,meteobridge,2013-09-11 22:58:00,
2013-09-11 19:04:00,83.1,72.0,30.06,NW,309,0.0,0.0,69,0.00,,,0.00,meteobridge,2013-09-11 23:04:00,
2013-09-11 19:09:00,82.6,72.1,30.06,WNW,302,0.0,0.0,71,0.00,,,0.00,meteobridge,2013-09-11 23:09:00,
2013-09-11 19:14:00,82.0,72.5,30.06,WNW,302,0.0,0.0,73,0.00,,,0.00,meteobridge,2013-09-11 23:14:00,
2013-09-11 19:19:00,81.7,72.5,30.06,WNW,302,0.0,0.0,74,0.00,,,0.00,meteobridge,2013-09-11 23:19:00,
2013-09-11 19:24:00,81.3,72.7,30.06,WNW,302,0.0,0.0,75,0.00,,,0.00,meteobridge,2013-09-11 23:24:00,
2013-09-11 19:30:00,81.0,72.7,30.07,WNW,302,0.0,0.0,76,0.00,,,0.00,meteobridge,2013-09-11 23:30:00,
2013-09-11 19:35:00,80.2,72.7,30.07,WNW,302,0.0,0.0,78,0.00,,,0.00,meteobridge,2013-09-11 23:35:00,
2013-09-11 19:40:00,79.9,73.2,30.07,WNW,302,0.0,0.0,80,0.00,,,0.00,meteobridge,2013-09-11 23:40:00,
2013-09-11 19:45:00,79.5,73.2,30.07,WNW,302,0.0,0.0,81,0.00,,,0.00,meteobridge,2013-09-11 23:45:00,
2013-09-11 19:51:00,79.2,73.2,30.07,WNW,302,0.0,0.0,82,0.00,,,0.00,meteobridge,2013-09-11 23:51:00,
2013-09-11 19:56:00,79.0,73.4,30.07,WNW,302,0.0,0.0,83,0.00,,,0.00,meteobridge,2013-09-11 23:56:00,
2013-09-11 20:01:00,78.6,73.4,30.07,WNW,302,0.0,0.0,84,0.00,,,0.00,meteobridge,2013-09-12 00:01:00,
2013-09-11 20:06:00,78.3,73.0,30.08,WNW,302,0.0,0.0,84,0.00,,,0.00,meteobridge,2013-09-12 00:06:00,
2013-09-11 20:11:00,78.1,73.2,30.08,WNW,302,0.0,0.0,85,0.00,,,0.00,meteobridge,2013-09-12 00:11:00,
2013-09-11 20:16:00,77.9,73.0,30.08,WNW,302,0.0,0.0,85,0.00,,,0.00,meteobridge,2013-09-12 00:16:00,
2013-09-11 20:21:00,77.7,73.2,30.08,WNW,302,0.0,0.0,86,0.00,,,0.00,meteobridge,2013-09-12 00:21:00,
2013-09-11 20:27:00,77.5,73.0,30.07,WNW,302,0.0,0.0,86,0.00,,,0.00,meteobridge,2013-09-12 00:27:00,
2013-09-11 20:32:00,77.4,72.9,30.07,WNW,302,0.0,0.0,86,0.00,,,0.00,meteobridge,2013-09-12 00:32:00,
2013-09-11 20:37:00,77.2,73.0,30.07,WNW,302,0.0,0.0,87,0.00,,,0.00,meteobridge,2013-09-12 00:37:00,
2013-09-11 20:43:00,76.8,72.7,30.07,WNW,302,0.0,0.0,87,0.00,,,0.00,meteobridge,2013-09-12 00:43:00,
2013-09-11 20:48:00,76.6,72.5,30.07,WNW,302,0.0,0.0,87,0.00,,,0.00,meteobridge,2013-09-12 00:48:00,
2013-09-11 20:53:00,76.5,72.7,30.07,WNW,302,0.0,0.0,88,0.00,,,0.00,meteobridge,2013-09-12 00:53:00,
2013-09-11 20:59:00,76.3,72.5,30.07,WNW,302,0.0,0.0,88,0.00,,,0.00,meteobridge,2013-09-12 00:59:00,
2013-09-11 21:04:00,75.9,72.5,30.07,WNW,302,0.0,0.0,89,0.00,,,0.00,meteobridge,2013-09-12 01:04:00,
2013-09-11 21:09:00,75.9,72.5,30.07,WNW,302,0.0,0.0,89,0.00,,,0.00,meteobridge,2013-09-12 01:09:00,
2013-09-11 21:14:00,75.7,72.3,30.07,WNW,302,0.0,0.0,89,0.00,,,0.00,meteobridge,2013-09-12 01:14:00,
2013-09-11 21:19:00,75.6,72.1,30.08,WNW,302,0.0,0.0,89,0.00,,,0.00,meteobridge,2013-09-12 01:19:00,
2013-09-11 21:24:00,75.6,72.5,30.08,WNW,302,0.0,0.0,90,0.00,,,0.00,meteobridge,2013-09-12 01:24:00,
2013-09-11 21:30:00,75.4,72.3,30.08,WNW,302,0.0,0.0,90,0.00,,,0.00,meteobridge,2013-09-12 01:30:00,
2013-09-11 21:35:00,75.2,71.8,30.08,WNW,302,0.0,0.0,89,0.00,,,0.00,meteobridge,2013-09-12 01:35:00,
2013-09-11 21:41:00,75.0,72.0,30.08,WNW,302,0.0,0.0,90,0.00,,,0.00,meteobridge,2013-09-12 01:41:00,
2013-09-11 21:46:00,74.8,71.8,30.08,WNW,302,0.0,0.0,90,0.00,,,0.00,meteobridge,2013-09-12 01:46:00,
2013-09-11 21:51:00,74.7,71.6,30.08,WNW,302,0.0,0.0,90,0.00,,,0.00,meteobridge,2013-09-12 01:51:00,
2013-09-11 21:56:00,74.7,71.6,30.07,WNW,302,0.0,0.0,90,0.00,,,0.00,meteobridge,2013-09-12 01:56:00,
2013-09-11 22:01:00,74.7,71.6,30.07,WNW,302,0.0,0.0,90,0.00,,,0.00,meteobridge,2013-09-12 02:01:00,
2013-09-11 22:07:00,74.5,71.1,30.08,WNW,302,0.0,0.0,89,0.00,,,0.00,meteobridge,2013-09-12 02:07:00,
2013-09-11 22:12:00,74.3,71.2,30.07,WNW,302,0.0,0.0,90,0.00,,,0.00,meteobridge,2013-09-12 02:12:00,
2013-09-11 22:17:00,74.1,70.7,30.08,WNW,302,0.0,0.0,89,0.00,,,0.00,meteobridge,2013-09-12 02:17:00,
2013-09-11 22:22:00,74.1,71.1,30.08,WNW,302,0.0,0.0,90,0.00,,,0.00,meteobridge,2013-09-12 02:22:00,
2013-09-11 22:27:00,74.1,71.1,30.08,WNW,302,0.0,0.0,90,0.00,,,0.00,meteobridge,2013-09-12 02:27:00,
2013-09-11 22:33:00,74.1,71.1,30.08,WNW,302,0.0,0.0,90,0.00,,,0.00,meteobridge,2013-09-12 02:33:00,
2013-09-11 22:37:00,73.9,70.9,30.08,WNW,302,0.0,0.0,90,0.00,,,0.00,meteobridge,2013-09-12 02:37:00,
2013-09-11 22:43:00,73.9,71.1,30.08,WNW,302,0.0,0.0,91,0.00,,,0.00,meteobridge,2013-09-12 02:43:00,
2013-09-11 22:48:00,73.8,70.9,30.07,WNW,302,0.0,0.0,91,0.00,,,0.00,meteobridge,2013-09-12 02:48:00,
2013-09-11 22:53:00,73.8,70.9,30.07,WNW,302,0.0,0.0,91,0.00,,,0.00,meteobridge,2013-09-12 02:53:00,
2013-09-11 22:58:00,73.8,70.9,30.07,WNW,302,0.0,0.0,91,0.00,,,0.00,meteobridge,2013-09-12 02:58:00,
2013-09-11 23:03:00,73.6,70.7,30.07,WNW,302,0.0,0.0,91,0.00,,,0.00,meteobridge,2013-09-12 03:03:00,
2013-09-11 23:09:00,73.6,70.7,30.07,WNW,302,0.0,0.0,91,0.00,,,0.00,meteobridge,2013-09-12 03:09:00,
2013-09-11 23:14:00,73.2,70.5,30.07,WNW,302,0.0,0.0,91,0.00,,,0.00,meteobridge,2013-09-12 03:14:00,
2013-09-11 23:19:00,73.2,70.5,30.07,WNW,302,0.0,0.0,91,0.00,,,0.00,meteobridge,2013-09-12 03:19:00,
2013-09-11 23:25:00,73.0,70.3,30.07,WNW,302,0.0,0.0,91,0.00,,,0.00,meteobridge,2013-09-12 03:25:00,
2013-09-11 23:30:00,73.0,70.5,30.06,WNW,302,0.0,0.0,92,0.00,,,0.00,meteobridge,2013-09-12 03:30:00,
2013-09-11 23:35:00,72.9,70.3,30.06,WNW,302,0.0,0.0,92,0.00,,,0.00,meteobridge,2013-09-12 03:35:00,
2013-09-11 23:40:00,72.7,70.2,30.06,WNW,302,0.0,0.0,92,0.00,,,0.00,meteobridge,2013-09-12 03:40:00,
2013-09-11 23:45:00,72.7,70.2,30.06,WNW,302,0.0,0.0,92,0.00,,,0.00,meteobridge,2013-09-12 03:45:00,
2013-09-11 23:51:00,72.5,69.8,30.06,WNW,302,0.0,0.0,91,0.00,,,0.00,meteobridge,2013-09-12 03:51:00,
2013-09-11 23:56:00,72.3,69.6,30.06,WNW,302,0.0,0.0,91,0.00,,,0.00,meteobridge,2013-09-12 03:56:00,